Bentleyville, Ohio
Current Conditions -  °F | °C
As of 7:45 AM on Monday 24 Nov 2014 (Local Time) from KCGF Reporting Station
Broken Clouds Broken Clouds  
Wind Chill: 61°   Ceiling: 3500
Heat Index: 61°   Visibility: 7mi
Dew Point: 54°   Wind: 21mph
Humidity: 77%   Direction: 210°SSW
Pressure: 29.28"   Gusts: 35mph
Location:  41.4475°N, 81.4018°W
Report Text: KCGF 241245Z 21018G30KT 7SM BKN035 16/12 A2928
Loading
Personal Weather Stations






























Interactive Weather Map New forecast layout! Learn more

10-Day Weather Forecast

Advertisements
Track Severe Weather on mobile